Tiempo atmosférico en la estación meteorológica de Bunyola, Sierra de Alfabia, Illes Balears (1030 m.)

Fecha
DESCASC
Temp. máxima en grados centígrados (hora)
DESCASC
Temp. mínima en grados centígrados (hora)
DESCASC
Temp. media en grados centígrados
DESCASC
Racha de viento máxima en m/sg (hora)
DESCASC
Velocidad máxima media en intervalos de 10 minutos(hora)
DESCASC
Precipitaciones diarias en mm
DESCASC
Precipitaciones de 00:00 a 06:00 en mm
DESCASC
Precipitaciones de 06:00 a 12:00 en mm
DESCASC
Precipitaciones de 12:00 a 18:00 en mm
DESCASC
Precipitaciones de 18:00 a 24:00 en mm
DESCASC

Gráficas

Temp. máximas Temp. mínimas Temp. medias Precipitaciones Rachas de viento máximas Velocidades máximas media en intervalos de 10 minutos

Datos horarios

Fecha y hora oficial Temperatura (ºC) Velocidad del viento (km/h) Dirección del viento Racha (km/h) Dirección de racha Precipitación (mm) Presión (hPa) Tendencia (hPa) Humedad (%)
2017-08-20 23:00:00 16.7 10 Norte 14 Norte 0 -- -- 83
2017-08-20 22:00:00 16.6 6 Sur 12 Sur 0 -- -- 78
2017-08-20 21:00:00 17.3 6 Sur 18 Sur 0 -- -- 73
2017-08-20 20:00:00 19 8 Sudoeste 15 Sudoeste 0 -- -- 65
2017-08-20 19:00:00 20.7 8 Sudoeste 28 Sur 0 -- -- 56
2017-08-20 18:00:00 20.8 6 Norte 24 Nordeste 0 -- -- 58
2017-08-20 17:00:00 21.6 8 Norte 18 Noroeste 0 -- -- 52
2017-08-20 16:00:00 21.3 13 Norte 23 Norte 0 -- -- 52
2017-08-20 15:00:00 21.7 13 Norte 24 Norte 0 -- -- 51
2017-08-20 14:00:00 21.5 5 Nordeste 18 Norte 0 -- -- 52
2017-08-20 13:00:00 20.9 10 Norte 17 Norte 0 -- -- 56
2017-08-20 12:00:00 22.3 8 Norte 16 Norte 0 -- -- 54
2017-08-20 11:00:00 20.5 3 Norte 27 Este 0 -- -- 61
2017-08-20 10:00:00 18.3 13 Este 23 Este 0 -- -- 73
2017-08-20 09:00:00 17.7 9 Sudeste 14 Sudeste 0 -- -- 79
2017-08-20 08:00:00 17.1 4 Noroeste 10 Noroeste 0 -- -- 87
2017-08-20 07:00:00 16.7 0 Calma 17 Norte 0 -- -- 85
2017-08-20 06:00:00 17.5 13 Norte 17 Norte 0 -- -- 88
2017-08-20 05:00:00 17.5 10 Norte 17 Norte 0 -- -- 82
2017-08-20 04:00:00 17.5 13 Norte 17 Norte 0 -- -- 83
2017-08-20 03:00:00 17.6 12 Norte 19 Norte 0 -- -- 82
2017-08-20 02:00:00 17.6 10 Norte 21 Norte 0 -- -- 85
2017-08-20 01:00:00 17.9 14 Norte 23 Norte 0 -- -- 83
2017-08-20 00:00:00 18 13 Norte 19 Norte 0 -- -- 82
2017-08-19 23:00:00 19 4 Sudoeste 10 Nordeste 0 -- -- 74
2017-08-19 22:00:00 18.3 6 Nordeste 10 Nordeste 0 -- -- 81
2017-08-19 21:00:00 19.5 2 Sudoeste 7 Nordeste 0 -- -- 66
2017-08-19 20:00:00 20.3 4 Nordeste 14 Este 0 -- -- 63
2017-08-19 19:00:00 21.2 5 Sudeste 15 Este 0 -- -- 57
2017-08-19 18:00:00 22.5 3 Sudeste 19 Nordeste 0 -- -- 55
2017-08-19 17:00:00 24.7 0 Calma 26 Sur 0 -- -- 47
2017-08-19 16:00:00 22.5 19 Sudeste 29 Sudeste 0 -- -- 49
2017-08-19 15:00:00 23.8 18 Sudeste 30 Sudeste 0 -- -- 47
2017-08-19 14:00:00 23 21 Sudeste 31 Sudeste 0 -- -- 45
2017-08-19 13:00:00 24.1 14 Sudeste 37 Este 0 -- -- 45
2017-08-19 12:00:00 22 26 Este 44 Sudeste 0 -- -- 51
2017-08-19 11:00:00 21.2 31 Sudeste 49 Sudeste 0 -- -- 59
2017-08-19 10:00:00 20.4 32 Sudeste 44 Este 0 -- -- 65
2017-08-19 09:00:00 19.9 24 Sudeste 38 Este 0 -- -- 65
2017-08-19 08:00:00 18.7 27 Este 41 Este 0 -- -- 69
2017-08-19 07:00:00 18.4 25 Este 36 Sudeste 0 -- -- 69
2017-08-19 06:00:00 18 27 Sudeste 33 Sudeste 0 -- -- 81
2017-08-19 05:00:00 19.8 12 Este 15 Este 0 -- -- 55
2017-08-19 04:00:00 21.3 16 Sudeste 26 Sudeste 0 -- -- 44
2017-08-19 03:00:00 21.6 21 Sudeste 24 Sudeste 0 -- -- 47
2017-08-19 02:00:00 22 15 Sudeste 18 Sudeste 0 -- -- 47
2017-08-19 01:00:00 23 4 Nordeste 9 Nordeste 0 -- -- 46
2017-08-19 00:00:00 23.8 6 Sudeste 12 Nordeste 0 -- -- 38
2017-08-18 23:00:00 25.2 9 Sur 15 Sur 0 -- -- 34
2017-08-18 22:00:00 24.6 9 Sur 18 Sudeste 0 -- -- 41
2017-08-18 21:00:00 23.8 18 Sudeste 20 Sudeste 0 -- -- 46
2017-08-18 20:00:00 23.9 14 Sur 19 Sur 0 -- -- 46
2017-08-18 19:00:00 24.9 15 Sur 23 Sur 0 -- -- 47
2017-08-18 18:00:00 26.2 9 Sur 24 Sudeste 0 -- -- 47
2017-08-18 17:00:00 26 15 Sur 27 Sur 0 -- -- 48
2017-08-18 16:00:00 26.1 11 Sur 28 Sur 0 -- -- 45
2017-08-18 15:00:00 27.5 14 Sudoeste 24 Sudoeste 0 -- -- 40
2017-08-18 14:00:00 27.3 11 Sur 21 Sudoeste 0 -- -- 41
2017-08-18 13:00:00 26.6 8 Sudoeste 25 Sur 0 -- -- 46
2017-08-18 12:00:00 25.2 15 Sur 35 Sudoeste 0 -- -- 48
2017-08-18 11:00:00 25.2 12 Sur 25 Sur 0 -- -- 48
2017-08-18 10:00:00 24.5 14 Sur 22 Sur 0 -- -- 50
2017-08-18 09:00:00 23.6 9 Sur 13 Sur 0 -- -- 49
2017-08-18 08:00:00 23.2 4 Sudeste 8 Sur 0 -- -- 51
2017-08-18 07:00:00 22.3 0 Calma 6 Sur 0 -- -- 50
2017-08-18 06:00:00 22.3 5 Sudeste 12 Sur 0 -- -- 51
2017-08-18 05:00:00 22.1 8 Sur 10 Sur 0 -- -- 56
2017-08-18 04:00:00 22.1 8 Sudeste 10 Sur 0 -- -- 56
2017-08-18 03:00:00 22.2 8 Sudeste 10 Sudeste 0 -- -- 56
2017-08-18 02:00:00 22 11 Sudeste 13 Sur 0 -- -- 60
2017-08-18 01:00:00 22.5 9 Sur 16 Sudeste 0 -- -- 56
2017-08-18 00:00:00 22.7 13 Sudeste 17 Sudeste 0 -- -- 52
2017-08-17 23:00:00 23.1 13 Este 15 Sudeste 0 -- -- 51
2017-08-17 22:00:00 22.4 7 Norte 14 Sudeste 0 -- -- 49
2017-08-17 21:00:00 22.2 13 Sudeste 15 Sudeste 0 -- -- 47
2017-08-17 20:00:00 23.3 3 Sur 12 Sur 0 -- -- 43
2017-08-17 19:00:00 24.2 6 Sur 15 Sudoeste 0 -- -- 38
2017-08-17 18:00:00 24.8 8 Sur 15 Sur 0 -- -- 39
2017-08-17 17:00:00 25.8 5 Sudoeste 24 Sudoeste 0 -- -- 42
2017-08-17 16:00:00 25.7 9 Sudoeste 22 Sudoeste 0 -- -- 43
2017-08-17 15:00:00 28.2 10 Sudoeste 28 Sudoeste 0 -- -- 35
2017-08-17 14:00:00 27.7 10 Sur 19 Sudoeste 0 -- -- 33
2017-08-17 13:00:00 27.5 6 Sudoeste 16 Sur 0 -- -- 33
2017-08-17 12:00:00 26.7 7 Sur 15 Sur 0 -- -- 34
2017-08-17 11:00:00 27.3 0 Calma 10 Nordeste 0 -- -- 30
2017-08-17 10:00:00 25.5 8 Norte 14 Norte 0 -- -- 32
2017-08-17 09:00:00 24.5 7 Norte 12 Este 0 -- -- 33
2017-08-17 08:00:00 22.9 11 Este 24 Sudeste 0 -- -- 33
2017-08-17 07:00:00 22.4 18 Sudeste 23 Sudeste 0 -- -- 35
2017-08-17 06:00:00 22.7 7 Nordeste 9 Nordeste 0 -- -- 39
2017-08-17 05:00:00 22.7 6 Nordeste 12 Sudeste 0 -- -- 38
2017-08-17 04:00:00 22.1 9 Este 13 Sudeste 0 -- -- 39
2017-08-17 03:00:00 23.2 5 Este 14 Este 0 -- -- 38
2017-08-17 02:00:00 23.9 12 Este 15 Sudeste 0 -- -- 38
2017-08-17 01:00:00 24.2 7 Este 12 Este 0 -- -- 38
2017-08-17 00:00:00 24.2 4 Nordeste 12 Nordeste 0 -- -- 45
2017-08-16 23:00:00 24.8 7 Nordeste 17 Este 0 -- -- 37
2017-08-16 22:00:00 25 9 Este 17 Sudeste 0 -- -- 36
2017-08-16 21:00:00 22.6 19 Sudeste 26 Sudeste 0 -- -- 68
2017-08-16 20:00:00 23.4 12 Sur 16 Sudeste 0 -- -- 66
2017-08-16 19:00:00 25.3 8 Sur 17 Sur 0 -- -- 59
2017-08-16 18:00:00 26 6 Sudoeste 22 Sur 0 -- -- 57
2017-08-16 17:00:00 27.3 11 Sudoeste 23 Sudoeste 0 -- -- 52
2017-08-16 16:00:00 26.8 8 Sudoeste 32 Oeste 0 -- -- 50
2017-08-16 15:00:00 27.7 8 Sudoeste 26 Sudoeste 0 -- -- 46
2017-08-16 14:00:00 27.7 10 Sudoeste 19 Sudoeste 0 -- -- 33
2017-08-16 13:00:00 28.9 4 Sudoeste 22 Sudoeste 0 -- -- 32
2017-08-16 12:00:00 26.3 10 Sur 24 Sudoeste 0 -- -- 42
2017-08-16 11:00:00 28 9 Sur 19 Sur 0 -- -- 32
2017-08-16 10:00:00 27 11 Sudeste 22 Sudeste 0 -- -- 32
2017-08-16 09:00:00 25.2 17 Sudeste 26 Sudeste 0 -- -- 35
2017-08-16 08:00:00 23.9 18 Sudeste 22 Sudeste 0 -- -- 37
2017-08-16 07:00:00 23.3 9 Sur 13 Sur 0 -- -- 37
2017-08-16 06:00:00 23.3 3 Sur 16 Sur 0 -- -- 37
2017-08-16 05:00:00 23.5 11 Sur 19 Sur 0 -- -- 38
2017-08-16 04:00:00 23.5 13 Sur 28 Sudeste 0 -- -- 38
2017-08-16 03:00:00 23.3 21 Sudeste 34 Sudeste 0 -- -- 39
2017-08-16 02:00:00 23.2 29 Sur 39 Sur 0 -- -- 41
2017-08-16 01:00:00 23.1 28 Sur 35 Sudeste 0 -- -- 41
2017-08-16 00:00:00 22.8 24 Sudeste 33 Sudeste 0 -- -- 43
2017-08-15 23:00:00 22.7 23 Sudeste 30 Sudeste 0 -- -- 44
2017-08-15 22:00:00 22.3 19 Sudeste 24 Sudeste 0 -- -- 54
2017-08-15 21:00:00 22.1 17 Sur 23 Sur 0 -- -- 69
2017-08-15 20:00:00 23.1 15 Sur 22 Sur 0 -- -- 65
2017-08-15 19:00:00 24.6 8 Sudeste 25 Sur 0 -- -- 59
2017-08-15 18:00:00 25.2 16 Sudeste 41 Sudeste 0 -- -- 57
2017-08-15 17:00:00 25.6 23 Sur 36 Sur 0 -- -- 53
2017-08-15 16:00:00 26.7 17 Sur 30 Sudeste 0 -- -- 47
2017-08-15 15:00:00 27.4 10 Sur 27 Sudoeste 0 -- -- 45
2017-08-15 14:00:00 26.7 12 Sur 26 Sudeste 0 -- -- 47
2017-08-15 13:00:00 26.9 16 Sur 30 Sur 0 -- -- 51
2017-08-15 12:00:00 24.8 23 Sur 34 Sur 0 -- -- 55
2017-08-15 11:00:00 23.2 21 Sur 28 Sur 0 -- -- 51
2017-08-15 10:00:00 24.4 18 Sur 24 Sur 0 -- -- 39
2017-08-15 09:00:00 24.4 15 Sur 26 Sur 0 -- -- 39
2017-08-15 08:00:00 23 21 Sur 27 Sur 0 -- -- 41
2017-08-15 07:00:00 22.9 18 Sur 28 Sur 0 -- -- 39
2017-08-15 06:00:00 22.4 19 Sur 31 Sur 0 -- -- 37
2017-08-15 05:00:00 21.2 23 Sur 33 Sur 0 -- -- 47
2017-08-15 04:00:00 20.3 32 Sur 38 Sur 0 -- -- 24
2017-08-15 03:00:00 18.1 32 Sur 44 Sur 0 -- -- 48
2017-08-15 02:00:00 19.3 29 Sudeste 36 Sudeste 0 -- -- 24
2017-08-15 01:00:00 19.4 29 Sudeste 35 Sudeste 0 -- -- 35
2017-08-15 00:00:00 21.9 24 Sudeste 34 Sudeste 0 -- -- 14
2017-08-14 23:00:00 23 26 Sudeste 33 Sudeste 0 -- -- 15
2017-08-14 22:00:00 22.3 29 Sudeste 37 Sudeste 0 -- -- 13
2017-08-14 21:00:00 19.4 32 Sudeste 37 Sudeste 0 -- -- 56
2017-08-14 20:00:00 20.3 25 Sudeste 37 Sudeste 0 -- -- 54
2017-08-14 19:00:00 21.9 18 Sur 33 Sur 0 -- -- 42
2017-08-14 18:00:00 23.1 14 Sur 27 Sur 0 -- -- 38
2017-08-14 17:00:00 24.4 8 Sur 33 Sur 0 -- -- 38
2017-08-14 16:00:00 23.9 17 Sur 31 Sur 0 -- -- 40
2017-08-14 15:00:00 25 16 Sudeste 31 Sudeste 0 -- -- 36
2017-08-14 14:00:00 24.6 15 Sur 29 Sur 0 -- -- 38
2017-08-14 13:00:00 24.4 15 Sudeste 26 Sudeste 0 -- -- 35
2017-08-14 12:00:00 22.9 16 Sudeste 25 Sur 0 -- -- 37
2017-08-14 11:00:00 22.2 10 Sur 29 Sur 0 -- -- 34
2017-08-14 10:00:00 21.4 20 Sudeste 32 Sudeste 0 -- -- 31
2017-08-14 09:00:00 20.2 24 Este 33 Este 0 -- -- 30
2017-08-14 08:00:00 18.6 27 Sudeste 33 Este 0 -- -- 29
2017-08-14 07:00:00 17.8 23 Este 32 Este 0 -- -- 32
2017-08-14 06:00:00 16.9 23 Este 27 Sudeste 0 -- -- 40
2017-08-14 05:00:00 16.3 13 Este 20 Sudeste 0 -- -- 44
2017-08-14 04:00:00 17.4 17 Este 22 Este 0 -- -- 36
2017-08-14 03:00:00 17.5 11 Nordeste 27 Este 0 -- -- 35
2017-08-14 02:00:00 18.1 24 Este 41 Sudeste 0 -- -- 29
2017-08-14 01:00:00 16.3 26 Sudeste 34 Sudeste 0 -- -- 68
2017-08-14 00:00:00 16.1 22 Sudeste 26 Sudeste 0 -- -- 78
2017-08-13 23:00:00 16.5 21 Sudeste 60 Sudeste 0 -- -- 70
2017-08-13 22:00:00 16.8 26 Sudeste 30 Sudeste 0 -- -- 67
2017-08-13 21:00:00 17 16 Sur 24 Sur 0 -- -- 76
2017-08-13 20:00:00 17.7 11 Sur 23 Sur 0 -- -- 77
2017-08-13 19:00:00 19.7 10 Sur 25 Sur 0 -- -- 64
2017-08-13 18:00:00 20.8 11 Sur 23 Sudeste 0 -- -- 55
2017-08-13 17:00:00 21.8 13 Sur 33 Sur 0 -- -- 49
2017-08-13 16:00:00 22.1 8 Sur 31 Sudeste 0 -- -- 50
2017-08-13 15:00:00 23.7 10 Sudeste 27 Sudeste 0 -- -- 40
2017-08-13 14:00:00 20.4 6 Nordeste 16 Norte 0 -- -- 60
2017-08-13 13:00:00 20.6 6 Nordeste 15 Norte 0 -- -- 58
2017-08-13 12:00:00 19.8 3 Nordeste 9 Oeste 0 -- -- 61
2017-08-13 11:00:00 19.2 2 Sur 16 Sur 0 -- -- 52
2017-08-13 10:00:00 19.7 5 Sudeste 12 Sur 0 -- -- 50
2017-08-13 09:00:00 18.7 5 Sur 8 Sudeste 0 -- -- 45
2017-08-13 08:00:00 15.8 7 Nordeste 12 Nordeste 0 -- -- 57
2017-08-13 07:00:00 14.5 11 Nordeste 14 Nordeste 0 -- -- 71
2017-08-13 06:00:00 14.8 8 Nordeste 10 Nordeste 0 -- -- 81
2017-08-13 05:00:00 15.3 8 Nordeste 10 Nordeste 0 -- -- 73
2017-08-13 04:00:00 15.7 7 Nordeste 15 Nordeste 0 -- -- 69
2017-08-13 03:00:00 15.4 9 Nordeste 12 Nordeste 0 -- -- 70
2017-08-13 02:00:00 15.1 8 Norte 12 Noroeste 0 -- -- 85
2017-08-13 01:00:00 15.2 8 Sur 21 Sur 0 -- -- 88
2017-08-13 00:00:00 15.7 15 Sur 22 Sur 0 -- -- 88
2017-08-12 23:00:00 15.7 11 Sur 17 Sur 0 -- -- 87
2017-08-12 22:00:00 16.2 8 Sur -- -- -- -- -- 87
2017-08-12 21:00:00 16.6 10 Sur 19 Sudeste 0 -- -- 86
2017-08-12 20:00:00 16.9 10 Sur 18 Sudoeste 0 -- -- 81
2017-08-12 19:00:00 17.9 0 Calma 17 Sudeste 0 -- -- 72
2017-08-12 18:00:00 17.7 6 Este 15 Este 0 -- -- 71
2017-08-12 17:00:00 18.1 10 Noroeste 25 Noroeste 0 -- -- 64
2017-08-12 16:00:00 17.5 9 Norte 19 Nordeste 0 -- -- 69
2017-08-12 15:00:00 18.3 5 Nordeste 20 Nordeste 0 -- -- 68
2017-08-12 14:00:00 17.2 9 Norte 22 Nordeste 0 -- -- 69
2017-08-12 13:00:00 17.3 6 Norte 18 Norte 0 -- -- 63
2017-08-12 12:00:00 17.3 8 Noroeste 16 Norte 0 -- -- 62
2017-08-12 11:00:00 16.4 3 Norte 10 Nordeste 0 -- -- 65
2017-08-12 10:00:00 16.4 0 Calma 7 Sudoeste 0 -- -- 62
2017-08-12 09:00:00 16 4 Sur 21 Sudeste 0 -- -- 66
2017-08-12 08:00:00 13.4 13 Sudeste 16 Sudeste 0 -- -- 85
2017-08-12 07:00:00 12.7 4 Este 13 Sudeste 0 -- -- 81
2017-08-12 06:00:00 13.1 11 Sudeste 23 Sudeste 0 -- -- 88
2017-08-12 05:00:00 13.2 16 Sudeste 22 Sudeste 0 -- -- 88
2017-08-12 04:00:00 12.9 12 Este 21 Sudeste 0 -- -- 88
2017-08-12 03:00:00 13.5 17 Sudeste 30 Sudeste 0 -- -- 89
2017-08-12 02:00:00 13.9 21 Sudeste 35 Sudeste 0 -- -- 89
2017-08-12 01:00:00 14 26 Sudeste 37 Sur 0 -- -- 89
2017-08-12 00:00:00 13.8 22 Sudeste 66 Sudeste 0 -- -- 88
2017-08-11 23:00:00 13.9 22 Sudeste 29 Sudeste 0 -- -- 79
2017-08-11 22:00:00 14.3 16 Sudeste 23 Sudeste 0 -- -- 69
2017-08-11 21:00:00 15.1 10 Norte 17 Norte 0 -- -- 50
2017-08-11 20:00:00 16.8 9 Sudeste 20 Sudeste 0 -- -- 61
2017-08-11 19:00:00 17.6 12 Nordeste 25 Nordeste 0 -- -- 42
2017-08-11 18:00:00 18.8 16 Norte 27 Noroeste 0 -- -- 40
2017-08-11 17:00:00 19.5 13 Noroeste 36 Noroeste 0 -- -- 38
2017-08-11 16:00:00 19.2 12 Norte 25 Norte 0 -- -- 42
2017-08-11 15:00:00 18.3 10 Noroeste 28 Oeste 0 -- -- 43
2017-08-11 14:00:00 16.9 7 Oeste 22 Norte 0 -- -- 51
2017-08-11 13:00:00 18.6 16 Noroeste 30 Norte 0 -- -- 47
2017-08-11 12:00:00 15.8 10 Norte 27 Norte 0 -- -- 60
2017-08-11 11:00:00 14.8 15 Noroeste 30 Norte 0 -- -- 70
2017-08-11 10:00:00 14 18 Noroeste 28 Noroeste 0 -- -- 74
2017-08-11 09:00:00 13.7 14 Noroeste 36 Noroeste 0 -- -- 72
2017-08-11 08:00:00 13.4 20 Noroeste 35 Noroeste 0 -- -- 77
2017-08-11 07:00:00 13.6 22 Noroeste 34 Norte 0 -- -- 71
2017-08-11 06:00:00 13.6 19 Noroeste 32 Noroeste 0 -- -- 73
2017-08-11 05:00:00 13.9 17 Noroeste 34 Noroeste 0 -- -- 80
2017-08-11 04:00:00 13.9 19 Noroeste 40 Noroeste 0 -- -- 80
2017-08-11 03:00:00 13.4 20 Noroeste 32 Noroeste 0 -- -- 74
2017-08-11 02:00:00 13.5 18 Noroeste 37 Noroeste 0 -- -- 59
2017-08-11 01:00:00 13.9 24 Noroeste 34 Noroeste 0 -- -- 52
2017-08-11 00:00:00 13.8 18 Noroeste 24 Noroeste 0 -- -- 57
2017-08-10 23:00:00 13.3 4 Oeste 17 Sudoeste 0 -- -- 75
2017-08-10 22:00:00 13.9 12 Sur 21 Sur 0 -- -- 84
2017-08-10 21:00:00 14.2 13 Sur 24 Sur 0 -- -- 82
2017-08-10 20:00:00 14.9 15 Sur 25 Sur 0 -- -- 73
2017-08-10 19:00:00 16.8 5 Sudoeste 14 Sudoeste 0 -- -- 58
2017-08-10 18:00:00 17.3 5 Sudoeste 15 Sur 0 -- -- 57
2017-08-10 17:00:00 16.5 6 Sur 17 Sur 0 -- -- 60
2017-08-10 16:00:00 16.3 4 Sudeste 15 Este 0 -- -- 62
2017-08-10 15:00:00 15.8 6 Este 28 Sudeste 0 -- -- 65
2017-08-10 14:00:00 14.6 22 Sudeste 39 Sudeste 0 -- -- 71
2017-08-10 13:00:00 13.2 24 Sudeste 33 Sudeste 0 -- -- 89
2017-08-10 12:00:00 13.7 3 Nordeste 18 Norte 0 -- -- 89
2017-08-10 11:00:00 13.1 12 Sudeste 35 Noroeste 0 -- -- 89
2017-08-10 10:00:00 12.8 9 Noroeste 52 Norte 0 -- -- 89
2017-08-10 09:00:00 11.4 39 Norte 67 Noroeste 2.3 -- -- 89
2017-08-10 08:00:00 12.4 37 Norte 56 Norte 0.1 -- -- 89
2017-08-10 07:00:00 12.1 21 Norte 36 Norte 0.2 -- -- 89
2017-08-10 06:00:00 12.2 16 Noroeste 30 Nordeste 0.3 -- -- 89
2017-08-10 05:00:00 12.4 20 Noroeste 41 Norte 1.8 -- -- 89
2017-08-10 04:00:00 12.7 14 Norte 42 Nordeste 2.9 -- -- 89
2017-08-10 03:00:00 13.1 24 Norte 40 Norte 2.4 -- -- 89
2017-08-10 02:00:00 14.1 18 Norte 43 Nordeste 0.4 -- -- 86
2017-08-10 01:00:00 14.7 25 Este 46 Sudeste 0 -- -- 80
2017-08-10 00:00:00 15 31 Sudeste 46 Sudeste 0 -- -- 73
2017-08-09 23:00:00 15.6 28 Sudeste 39 Sudeste 0 -- -- 79
2017-08-09 22:00:00 16.1 22 Este 34 Sudeste 0 -- -- 69
2017-08-09 21:00:00 16.5 26 Sudeste 36 Sudeste 0 -- -- 71
2017-08-09 20:00:00 17.8 20 Este 34 Sudeste 0 -- -- 62
2017-08-09 19:00:00 18 24 Sudeste 36 Este 0 -- -- 65
2017-08-09 18:00:00 19.5 23 Sudeste 37 Sudeste 0 -- -- 56
2017-08-09 17:00:00 20.8 26 Sudeste 39 Sudeste 0 -- -- 53
2017-08-09 16:00:00 20 28 Sudeste 43 Sudeste 0 -- -- 57
2017-08-09 15:00:00 20.9 18 Sudeste 32 Sudeste 0 -- -- 53
2017-08-09 14:00:00 22.6 13 Sur 28 Sudeste 0 -- -- 45
2017-08-09 13:00:00 21.4 14 Sur 31 Sur 0 -- -- 47
2017-08-09 12:00:00 20.4 16 Sudeste 30 Sudeste 0 -- -- 52
2017-08-09 11:00:00 19.8 15 Este 38 Sudeste 0 -- -- 56
2017-08-09 10:00:00 17.7 30 Sudeste 41 Sudeste 0 -- -- 66
2017-08-09 09:00:00 16.1 29 Este 38 Este 0 -- -- 78
2017-08-09 08:00:00 15.1 29 Sudeste 44 Sudeste 0 -- -- 85
2017-08-09 07:00:00 15.2 25 Sudeste 33 Sudeste 0 -- -- 82
2017-08-09 06:00:00 18.5 5 Sudeste 8 Sudeste 0 -- -- 49
2017-08-09 05:00:00 19.4 6 Norte 11 Nordeste 0 -- -- 48
2017-08-09 04:00:00 18.9 7 Nordeste 9 Norte 0 -- -- 62
2017-08-09 03:00:00 18.4 7 Nordeste 17 Sudeste 0 -- -- 61
2017-08-09 02:00:00 18.1 10 Este 14 Sudeste 0 -- -- 61
2017-08-09 01:00:00 17 4 Este 18 Este 0 -- -- 86
2017-08-09 00:00:00 17.4 11 Este 30 Sudeste 0 -- -- 88
2017-08-08 23:00:00 18.1 13 Este 22 Este 0 -- -- 87
2017-08-08 22:00:00 20.4 13 Nordeste 24 Norte 0 -- -- 75
2017-08-08 21:00:00 20.5 12 Norte 18 Norte 0 -- -- 84
2017-08-08 20:00:00 21.6 10 Noroeste 20 Norte 0 -- -- 79
2017-08-08 19:00:00 23 6 Norte 20 Este 0 -- -- 76
2017-08-08 18:00:00 24.5 8 Sudeste 23 Sudeste 0 -- -- 73
2017-08-08 17:00:00 26.2 9 Sudeste 25 Sudeste 0 -- -- 63
2017-08-08 16:00:00 27.4 9 Sudoeste 23 Sudoeste 0 -- -- 59
2017-08-08 15:00:00 28.9 3 Sudoeste 17 Sudoeste 0 -- -- 50
2017-08-08 14:00:00 29.1 0 Calma 24 Sur 0 -- -- 46
2017-08-08 13:00:00 27.7 3 Sudeste 22 Nordeste 0 -- -- 56
2017-08-08 12:00:00 23.3 13 Nordeste 22 Nordeste 0 -- -- 65
2017-08-08 11:00:00 26.2 6 Noroeste 36 Oeste 0 -- -- 53
2017-08-08 10:00:00 26.1 26 Sudoeste 40 Sudoeste 0 -- -- 38
2017-08-08 09:00:00 24.4 28 Sudoeste 40 Sudoeste 0 -- -- 36
2017-08-08 08:00:00 24.4 25 Sur 44 Sur 0 -- -- 37
2017-08-08 07:00:00 23.6 32 Sur 52 Sur 0 -- -- 42
2017-08-08 06:00:00 21.5 31 Sur 42 Sur 0 -- -- 52
2017-08-08 05:00:00 21.3 29 Sur 43 Sur 0 -- -- 52
2017-08-08 04:00:00 21.4 32 Sur 45 Sur 0 -- -- 51
2017-08-08 03:00:00 21.3 31 Sur 40 Sur 0 -- -- 52
2017-08-08 02:00:00 21.6 29 Sur 36 Sur 0 -- -- 52
2017-08-08 01:00:00 21.7 26 Sur 40 Sur 0 -- -- 54
2017-08-08 00:00:00 21 26 Sur 43 Sur 0 -- -- 55
2017-08-07 23:00:00 21 28 Sur 37 Sur 0 -- -- 53
2017-08-07 22:00:00 20.8 31 Sur 44 Sur 0 -- -- 57
2017-08-07 21:00:00 20.5 34 Sur 44 Sur 0 -- -- 63
2017-08-07 20:00:00 21.2 33 Sur 48 Sur 0 -- -- 62
2017-08-07 19:00:00 22.5 34 Sur 48 Sur 0 -- -- 54
2017-08-07 18:00:00 23.8 37 Sur 53 Sudoeste 0 -- -- 49
2017-08-07 17:00:00 24.2 32 Sur 49 Sur 0 -- -- 46
2017-08-07 16:00:00 25 26 Sur 40 Sur 0 -- -- 44
2017-08-07 15:00:00 25.4 19 Sur 37 Sur 0 -- -- 45
2017-08-07 14:00:00 25.5 16 Sur 35 Sur 0 -- -- 48
2017-08-07 13:00:00 25.5 15 Sur 28 Sur 0 -- -- 45
2017-08-07 12:00:00 24.1 18 Sur 30 Sur 0 -- -- 47
2017-08-07 11:00:00 23.4 12 Sur 22 Sur 0 -- -- 51
2017-08-07 10:00:00 23.1 6 Sur 12 Sur 0 -- -- 54
2017-08-07 09:00:00 23.1 3 Oeste 12 Sur 0 -- -- 52
2017-08-07 08:00:00 21.5 8 Sur 12 Sur 0 -- -- 61
2017-08-07 07:00:00 20.3 5 Sur 15 Sudeste 0 -- -- 63
2017-08-07 06:00:00 20 9 Sudeste 13 Sudeste 0 -- -- 63
2017-08-07 05:00:00 20.4 8 Sudeste 9 Sudeste 0 -- -- 63
2017-08-07 04:00:00 20.4 0 Calma 5 Sudeste 0 -- -- 67
2017-08-07 03:00:00 20.6 5 Sudeste 12 Sudeste 0 -- -- 60
2017-08-07 02:00:00 20.9 4 Este 16 Sudeste 0 -- -- 60
2017-08-07 01:00:00 21.2 8 Sudeste 11 Este 0 -- -- 61
2017-08-07 00:00:00 21.2 9 Este 13 Sudeste 0 -- -- 64
2017-08-06 23:00:00 21.2 8 Sudeste 10 Sudeste 0 -- -- 69
2017-08-06 22:00:00 21.2 3 Sur 5 Sudeste 0 -- -- 69
2017-08-06 21:00:00 21.7 4 Sur 9 Este 0 -- -- 65
2017-08-06 20:00:00 23 9 Este 14 Sudeste 0 -- -- 62
2017-08-06 19:00:00 24.1 9 Este 16 Sudeste 0 -- -- 58
2017-08-06 18:00:00 25 12 Este 22 Sudeste 0 -- -- 55
2017-08-06 17:00:00 25.5 8 Este 26 Este 0 -- -- 55
2017-08-06 16:00:00 25.7 14 Este 27 Sudeste 0 -- -- 52
2017-08-06 15:00:00 26.6 13 Este 30 Sudeste 0 -- -- 52
2017-08-06 14:00:00 25.9 20 Este 33 Sudeste 0 -- -- 54
2017-08-06 13:00:00 24.4 22 Sudeste 33 Sudeste 0 -- -- 57
2017-08-06 12:00:00 24.6 22 Sudeste 32 Sudeste 0 -- -- 59
2017-08-06 11:00:00 24 19 Sudeste 28 Este 0 -- -- 63
2017-08-06 10:00:00 23.2 14 Este 22 Sudeste 0 -- -- 62
2017-08-06 09:00:00 24.2 6 Norte 12 Noroeste 0 -- -- 54
2017-08-06 08:00:00 23.2 3 Nordeste 13 Norte 0 -- -- 53
2017-08-06 07:00:00 21.7 8 Nordeste 27 Sudeste 0 -- -- 59
2017-08-06 06:00:00 20.8 26 Sudeste 38 Sudeste 0 -- -- 63
2017-08-06 05:00:00 21 28 Sudeste 34 Sudeste 0 -- -- 61
2017-08-06 04:00:00 22.4 26 Sur 33 Sur 0 -- -- 59
2017-08-06 03:00:00 23 26 Sur 30 Sur 0 -- -- 57
2017-08-06 02:00:00 22.8 22 Sur 25 Sur 0 -- -- 60
2017-08-06 01:00:00 23.1 16 Sur 19 Sudeste 0 -- -- 61
2017-08-06 00:00:00 24.5 8 Este 27 Sudeste 0 -- -- 53
2017-08-05 23:00:00 25 23 Sudeste 29 Sudeste 0 -- -- 52
2017-08-05 22:00:00 23.9 4 Nordeste 22 Sudeste 0 -- -- 62
2017-08-05 21:00:00 24.1 21 Sudeste 26 Sur 0 -- -- 61
2017-08-05 20:00:00 24.8 18 Sur 23 Sur 0 -- -- 57
2017-08-05 19:00:00 26.4 11 Sur 20 Sur 0 -- -- 51
2017-08-05 18:00:00 27.4 8 Sur 18 Sur 0 -- -- 46
2017-08-05 17:00:00 29 11 Sur 22 Sudoeste 0 -- -- 44
2017-08-05 16:00:00 30.6 6 Sudeste 23 Sur 0 -- -- 38
2017-08-05 15:00:00 29.7 11 Sudeste 30 Sudeste 0 -- -- 40
2017-08-05 14:00:00 29.3 11 Sudeste 24 Sudeste 0 -- -- 42
2017-08-05 13:00:00 28.5 9 Este 22 Sudeste 0 -- -- 43
2017-08-05 12:00:00 28.6 10 Este 25 Sudeste 0 -- -- 42
2017-08-05 11:00:00 27.2 16 Sudeste 26 Este 0 -- -- 45
2017-08-05 10:00:00 26.2 14 Este 26 Este 0 -- -- 47
2017-08-05 09:00:00 24.9 17 Este 27 Sudeste 0 -- -- 48
2017-08-05 08:00:00 24.1 18 Este 31 Este 0 -- -- 49
2017-08-05 07:00:00 22.6 23 Este 34 Sudeste 0 -- -- 52
2017-08-05 06:00:00 22.6 26 Este 37 Este 0 -- -- 52
2017-08-05 05:00:00 23.6 26 Este 36 Este 0 -- -- 46
2017-08-05 04:00:00 25.2 7 Sudeste 11 Nordeste 0 -- -- 33
2017-08-05 03:00:00 26.1 9 Este 12 Este 0 -- -- 33
2017-08-05 02:00:00 26.4 7 Nordeste 12 Nordeste 0 -- -- 32
2017-08-05 01:00:00 26.4 7 Este 11 Sudeste 0 -- -- 33
2017-08-05 00:00:00 25.7 8 Este 10 Este 0 -- -- 50
2017-08-04 23:00:00 25.1 7 Este 12 Este 0 -- -- 53
2017-08-04 22:00:00 25.1 5 Este 10 Sudeste 0 -- -- 60
2017-08-04 21:00:00 25.4 8 Sudeste 16 Sur 0 -- -- 56
2017-08-04 20:00:00 26.6 7 Sur 14 Sur 0 -- -- 52
2017-08-04 19:00:00 28.9 2 Sur 15 Norte 0 -- -- 48
2017-08-04 18:00:00 29.3 3 Sudeste 27 Sur 0 -- -- 47
2017-08-04 17:00:00 30.6 2 Norte 19 Norte 0 -- -- 40
2017-08-04 16:00:00 28.6 6 Norte 17 Norte 0 -- -- 42
2017-08-04 15:00:00 30.9 4 Norte 26 Sudoeste 0 -- -- 42
2017-08-04 14:00:00 30.5 6 Sudoeste 25 Sur 0 -- -- 40
2017-08-04 13:00:00 31.3 7 Noroeste 14 Norte 0 -- -- 27
2017-08-04 12:00:00 29.6 3 Noroeste 17 Noroeste 0 -- -- 35
2017-08-04 11:00:00 29.1 8 Norte 15 Norte 0 -- -- 35
2017-08-04 10:00:00 28.5 9 Noroeste 12 Norte 0 -- -- 35
2017-08-04 09:00:00 28.8 2 Oeste 11 Norte 0 -- -- 35
2017-08-04 08:00:00 25.6 10 Norte 21 Norte 0 -- -- 38
2017-08-04 07:00:00 24.1 18 Norte 25 Norte 0 -- -- 42
2017-08-04 06:00:00 24.1 17 Norte 23 Noroeste 0 -- -- 42
2017-08-04 05:00:00 24.5 12 Noroeste 21 Norte 0 -- -- 40
2017-08-04 04:00:00 24.9 14 Noroeste 20 Noroeste 0 -- -- 40
2017-08-04 03:00:00 24.6 15 Noroeste 20 Noroeste 0 -- -- 39
2017-08-04 02:00:00 25.6 5 Oeste 8 Oeste 0 -- -- 38
2017-08-04 01:00:00 25.2 8 Sur 17 Sur 0 -- -- 38
2017-08-04 00:00:00 25.5 12 Sur 17 Sur 0 -- -- 39
2017-08-03 23:00:00 25.3 13 Sur 17 Sudeste 0 -- -- 42
2017-08-03 22:00:00 25.4 13 Sudeste 16 Sudeste 0 -- -- 45
2017-08-03 21:00:00 26.2 4 Sudeste 10 Sudeste 0 -- -- 40
2017-08-03 20:00:00 26.8 6 Sur 18 Sur 0 -- -- 43
2017-08-03 19:00:00 28.1 10 Sur 16 Sur 0 -- -- 38
2017-08-03 18:00:00 28.5 10 Sur 23 Sur 0 -- -- 39
2017-08-03 17:00:00 30.4 7 Sur 27 Sur 0 -- -- 35
2017-08-03 16:00:00 32.2 19 Sur 44 Sudoeste 0 -- -- 25
2017-08-03 15:00:00 31.6 20 Sur 42 Sur 0 -- -- 27
2017-08-03 14:00:00 31.7 20 Sur 45 Sudeste 0 -- -- 30
2017-08-03 13:00:00 30 20 Sur 39 Sudeste 0 -- -- 33
2017-08-03 12:00:00 29.5 17 Sudeste 33 Sudoeste 0 -- -- 37
2017-08-03 11:00:00 27.4 19 Sur 33 Sur 0 -- -- 38
2017-08-03 10:00:00 29.9 18 Sur 36 Sur 0 -- -- 27
2017-08-03 09:00:00 28.7 26 Sur 42 Sur 0 -- -- 28
2017-08-03 08:00:00 28.2 27 Sur 40 Sudeste 0 -- -- 29
2017-08-03 07:00:00 27.6 29 Sudeste 38 Sudeste 0 -- -- 30
2017-08-03 06:00:00 27.1 12 Este 31 Sudeste 0 -- -- 32
2017-08-03 05:00:00 27 26 Sudeste 41 Nordeste 0 -- -- 34
2017-08-03 04:00:00 23.6 26 Norte 47 Sur 0 -- -- 59
2017-08-03 03:00:00 27.3 26 Sur 49 Sur 0 -- -- 30
2017-08-03 02:00:00 28.1 27 Sur 61 Sur 0 -- -- 29
2017-08-03 01:00:00 28.1 32 Sur 54 Sur 0 -- -- 32
2017-08-03 00:00:00 27.1 40 Sudeste 55 Sudeste 0 -- -- 36
2017-08-02 23:00:00 27 37 Sudeste 53 Sudeste 0 -- -- 38
2017-08-02 22:00:00 26.7 28 Sudeste 44 Sudeste 0 -- -- 42
2017-08-02 21:00:00 27.2 14 Sudeste 31 Sudeste 0 -- -- 41
2017-08-02 20:00:00 28.3 5 Este 15 Norte 0 -- -- 41
2017-08-02 19:00:00 28.8 3 Nordeste 23 Sur 0 -- -- 40
2017-08-02 18:00:00 30.2 10 Sur 22 Sudoeste 0 -- -- 37
2017-08-02 17:00:00 30.6 7 Sur 20 Sudoeste 0 -- -- 37
2017-08-02 16:00:00 28.4 9 Nordeste 31 Nordeste 0 -- -- 40
2017-08-02 15:00:00 31.4 5 Sudoeste 28 Sudeste 0 -- -- 38
2017-08-02 14:00:00 30.5 17 Sur 40 Sur 0 -- -- 38
2017-08-02 13:00:00 28.3 22 Sur 38 Sur 0 -- -- 41
2017-08-02 12:00:00 28.5 17 Sur 30 Sur 0 -- -- 40
2017-08-02 11:00:00 25.9 11 Norte 16 Norte 0 -- -- 52
2017-08-02 10:00:00 28.8 4 Oeste 20 Noroeste 0 -- -- 33
2017-08-02 09:00:00 27.5 14 Sudoeste 36 Sur 0 -- -- 35
2017-08-02 08:00:00 27.1 25 Sur 38 Sur 0 -- -- 36
2017-08-02 07:00:00 25.2 31 Sur 43 Sur 0 -- -- 41
2017-08-02 06:00:00 24.4 26 Sur 45 Sur 0 -- -- 37
2017-08-02 05:00:00 28.1 27 Sur 44 Sur 0 -- -- 30
2017-08-02 04:00:00 28.7 25 Sur 48 Sur 0 -- -- 30
2017-08-02 03:00:00 28.6 31 Sur 48 Sur 0 -- -- 31
2017-08-02 02:00:00 26.4 28 Sur 47 Sur 0 -- -- 35
2017-08-02 01:00:00 26.9 28 Sur 39 Sur 0 -- -- 34
2017-08-02 00:00:00 26.6 15 Sur 30 Sur 0 -- -- 35
2017-08-01 23:00:00 25.7 16 Sur 50 Sudeste 0 -- -- 37
2017-08-01 22:00:00 25.5 28 Sudeste 45 Sudeste 0 -- -- 38
2017-08-01 21:00:00 28.4 21 Sudeste 30 Sudeste 0 -- -- 33
2017-08-01 20:00:00 27.2 13 Nordeste 30 Norte 0 -- -- 39
2017-08-01 19:00:00 27 27 Norte 36 Norte 0 -- -- 43
2017-08-01 18:00:00 29.4 12 Nordeste 25 Norte 0 -- -- 41
2017-08-01 17:00:00 27.7 15 Norte 22 Norte 0 -- -- 48
2017-08-01 16:00:00 28.5 3 Oeste 21 Sur 0 -- -- 46
2017-08-01 15:00:00 26.5 13 Sur 31 Sudoeste 0 -- -- 60
2017-08-01 14:00:00 31.5 12 Sur 30 Sur 0 -- -- 33
2017-08-01 13:00:00 31 20 Sur 33 Sur 0 -- -- 31
2017-08-01 12:00:00 29.5 16 Sur 44 Sudoeste 0 -- -- 37
2017-08-01 11:00:00 31.7 24 Sudoeste 55 Sudoeste 0 -- -- 24
2017-08-01 10:00:00 28.6 25 Sudoeste 55 Oeste 0 -- -- 28
2017-08-01 09:00:00 28.7 31 Sudoeste 51 Sudoeste 0 -- -- 30
2017-08-01 08:00:00 26.1 18 Sudoeste 37 Sudoeste 0 -- -- 34
2017-08-01 07:00:00 28.2 18 Sur 42 Sur 0 -- -- 29
2017-08-01 06:00:00 28.8 27 Sur 48 Sur 0 -- -- 29
2017-08-01 05:00:00 30.7 26 Sudoeste 68 Oeste 0 -- -- 23
2017-08-01 04:00:00 30.6 32 Oeste 68 Oeste 0 -- -- 24
2017-08-01 03:00:00 29.2 28 Sudoeste 43 Sudoeste 0 -- -- 27
2017-08-01 02:00:00 27.2 24 Sur 40 Sur 0 -- -- 29
2017-08-01 01:00:00 27.5 30 Sur 55 Sur 0 -- -- 29
2017-08-01 00:00:00 25.5 39 Sur 73 Sur 0 -- -- 36
2017-07-31 23:00:00 25.4 36 Sur 56 Sur 0 -- -- 34
2017-07-31 22:00:00 25.9 35 Sur 45 Sur 0 -- -- 39
2017-07-31 21:00:00 25.4 23 Sur 39 Sur 0 -- -- 46
2017-07-31 20:00:00 26.4 24 Sur 36 Sur 0 -- -- 44
2017-07-31 19:00:00 28.1 24 Sur 39 Sur 0 -- -- 43
2017-07-31 18:00:00 29.8 27 Sur 42 Sur 0 -- -- 38
2017-07-31 17:00:00 30.6 21 Sudeste 35 Sudeste 0 -- -- 38
2017-07-31 16:00:00 31 10 Sur 24 Sur 0 -- -- 45
2017-07-31 15:00:00 31 13 Sur 31 Sudoeste 0 -- -- 43
2017-07-31 14:00:00 31.5 10 Sur 26 Sur 0 -- -- 34
2017-07-31 13:00:00 29.5 16 Sur 27 Sur 0 -- -- 37
2017-07-31 12:00:00 27.9 15 Sur 29 Sur 0 -- -- 45
2017-07-31 11:00:00 30.5 15 Sur 26 Sur 0 -- -- 27
2017-07-31 10:00:00 31 13 Sudeste 27 Sudeste 0 -- -- 24
2017-07-31 09:00:00 29.4 20 Sudeste 26 Sudeste 0 -- -- 23
2017-07-31 08:00:00 27.8 15 Sudeste 20 Sudeste 0 -- -- 26
2017-07-31 07:00:00 25.9 18 Sudeste 20 Sudeste 0 -- -- 30
2017-07-31 06:00:00 26.6 14 Sur 17 Sur 0 -- -- 30
2017-07-31 05:00:00 26.1 10 Sur 27 Sur 0 -- -- 31
2017-07-31 04:00:00 25.8 21 Sur 25 Sudeste 0 -- -- 32
2017-07-31 03:00:00 26.6 18 Sudeste 27 Sudeste 0 -- -- 26
2017-07-31 02:00:00 26.3 23 Sudeste 29 Sudeste 0 -- -- 32
2017-07-31 01:00:00 25.7 25 Sudeste 34 Sudeste 0 -- -- 33
2017-07-31 00:00:00 25.9 27 Sudeste 38 Sudeste 0 -- -- 33
2017-07-30 23:00:00 26 31 Sudeste 41 Sudeste 0 -- -- 33
2017-07-30 22:00:00 25.5 29 Sudeste 41 Sudeste 0 -- -- 38
2017-07-30 21:00:00 25.6 26 Sudeste 34 Sudeste 0 -- -- 44
2017-07-30 20:00:00 26.4 27 Sudeste 39 Sur 0 -- -- 46
2017-07-30 19:00:00 27.7 24 Sur 35 Sur 0 -- -- 38
2017-07-30 18:00:00 28.7 17 Sur 32 Sur 0 -- -- 39
2017-07-30 17:00:00 29.7 14 Sur 31 Sur 0 -- -- 30
2017-07-30 16:00:00 30.9 12 Sur 29 Sur 0 -- -- 28
2017-07-30 15:00:00 31.3 15 Sur 33 Sudoeste 0 -- -- 25
2017-07-30 14:00:00 31.8 13 Sur 35 Sur 0 -- -- 21
2017-07-30 13:00:00 30.8 15 Sur 33 Sur 0 -- -- 20
2017-07-30 12:00:00 30 18 Sur 31 Sur 0 -- -- 20
2017-07-30 11:00:00 29.7 16 Sur 31 Sudeste 0 -- -- 19
2017-07-30 10:00:00 27.7 23 Sur 33 Sur 0 -- -- 21
2017-07-30 09:00:00 26.6 24 Sur 36 Sur 0 -- -- 23
2017-07-30 08:00:00 25.5 24 Sur 38 Sur 0 -- -- 23
2017-07-30 07:00:00 24.4 27 Sur 41 Sur 0 -- -- 24
2017-07-30 06:00:00 25.2 26 Sur 37 Sur 0 -- -- 23
2017-07-30 05:00:00 24.7 20 Sur 41 Sur 0 -- -- 24
2017-07-30 04:00:00 24.7 28 Sur 40 Sur 0 -- -- 23
2017-07-30 03:00:00 24.3 25 Sur 39 Sur 0 -- -- 23
2017-07-30 02:00:00 24.2 30 Sur 38 Sur 0 -- -- 25
2017-07-30 01:00:00 23.5 32 Sur 37 Sur 0 -- -- 28
2017-07-30 00:00:00 22.8 24 Sur 33 Sur 0 -- -- 38
2017-07-29 23:00:00 24.9 24 Sur 33 Sur 0 -- -- 28
2017-07-29 22:00:00 24.4 24 Sur 32 Sur 0 -- -- 34
2017-07-29 21:00:00 25.4 22 Sur 29 Sur 0 -- -- 31
2017-07-29 20:00:00 25.2 21 Sur 30 Sur 0 -- -- 33
2017-07-29 19:00:00 25.5 22 Sur 37 Sur 0 -- -- 32
2017-07-29 18:00:00 25.6 20 Sur 33 Sur 0 -- -- 30
2017-07-29 17:00:00 26.9 18 Sur 31 Sur 0 -- -- 28
2017-07-29 16:00:00 28.3 15 Sur 29 Sur 0 -- -- 29
2017-07-29 15:00:00 27.8 16 Sur 31 Sudoeste 0 -- -- 31
2017-07-29 14:00:00 28.1 14 Sur 26 Sur 0 -- -- 30
2017-07-29 13:00:00 27.9 14 Sur 27 Sur 0 -- -- 28
2017-07-29 12:00:00 27 16 Sur 32 Sur 0 -- -- 28
2017-07-29 11:00:00 26.8 22 Sur 32 Sur 0 -- -- 28
2017-07-29 10:00:00 26.2 21 Sur 29 Sur 0 -- -- 28
2017-07-29 09:00:00 24.9 20 Sur 25 Sur 0 -- -- 28
2017-07-29 08:00:00 24.2 18 Sur 23 Sur 0 -- -- 29
2017-07-29 07:00:00 22.7 21 Sur 24 Sudeste 0 -- -- 31
2017-07-29 06:00:00 23 8 Sudeste 17 Sur 0 -- -- 30
2017-07-29 05:00:00 22.6 15 Sudeste 18 Sudeste 0 -- -- 31
2017-07-29 04:00:00 23 10 Sudeste 14 Sudeste 0 -- -- 31
2017-07-29 03:00:00 23.1 8 Sur 9 Sur 0 -- -- 31
2017-07-29 02:00:00 23.3 4 Oeste 9 Oeste 0 -- -- 31
2017-07-29 01:00:00 24.1 5 Oeste 13 Oeste 0 -- -- 30
2017-07-29 00:00:00 25 10 Oeste 17 Oeste 0 -- -- 29
2017-07-28 23:00:00 22.9 15 Sudeste 21 Sur 0 -- -- 33
2017-07-28 22:00:00 23.3 6 Sudeste 14 Sur 0 -- -- 32
2017-07-28 21:00:00 24.1 7 Sur 14 Sur 0 -- -- 31
2017-07-28 20:00:00 24.5 9 Sur 20 Sur 0 -- -- 33
2017-07-28 19:00:00 24.6 14 Sur 23 Sur 0 -- -- 31
2017-07-28 18:00:00 26.6 10 Sur 20 Sudoeste 0 -- -- 29
2017-07-28 17:00:00 26.9 12 Sur 24 Sur 0 -- -- 26
2017-07-28 16:00:00 26.9 13 Sur 26 Sur 0 -- -- 26
2017-07-28 15:00:00 27.6 15 Sur 30 Sur 0 -- -- 25
2017-07-28 14:00:00 26.6 11 Sur 30 Sudoeste 0 -- -- 24
2017-07-28 13:00:00 27.1 14 Sur 25 Sur 0 -- -- 25
2017-07-28 12:00:00 25.9 16 Sur 25 Sur 0 -- -- 27
2017-07-28 11:00:00 25.4 15 Sur 21 Sur 0 -- -- 21
2017-07-28 10:00:00 24.9 15 Sur 23 Sudeste 0 -- -- 22
2017-07-28 09:00:00 24.1 21 Sur 26 Sur 0 -- -- 26
2017-07-28 08:00:00 23.4 17 Sur 28 Sur 0 -- -- 30
2017-07-28 07:00:00 22.1 24 Sur 26 Sur 0 -- -- 33
2017-07-28 06:00:00 22.6 18 Sur 21 Sur 0 -- -- 28
2017-07-28 05:00:00 23 9 Sur 16 Sudoeste 0 -- -- 28
2017-07-28 04:00:00 23.3 12 Sudoeste 17 Oeste 0 -- -- 29
2017-07-28 03:00:00 23.4 12 Oeste 23 Oeste 0 -- -- 28
2017-07-28 02:00:00 23.6 18 Sudoeste 24 Sudoeste 0 -- -- 28
2017-07-28 01:00:00 22.9 16 Sudoeste 23 Sudoeste 0 -- -- 30
2017-07-28 00:00:00 22.9 19 Sudoeste 26 Sudoeste 0 -- -- 27
2017-07-27 23:00:00 22.4 21 Sudoeste 26 Sudoeste 0 -- -- 29
2017-07-27 22:00:00 22.3 19 Sudoeste 24 Sudoeste 0 -- -- 35
2017-07-27 21:00:00 22 19 Sudoeste 24 Sudoeste 0 -- -- 36
2017-07-27 20:00:00 22.3 21 Sudoeste 25 Sudoeste 0 -- -- 38
2017-07-27 19:00:00 21.7 18 Sur 24 Sur 0 -- -- 63
2017-07-27 18:00:00 22.5 13 Sur 21 Sur 0 -- -- 62
2017-07-27 17:00:00 22.9 11 Sur 24 Sudoeste 0 -- -- 61
2017-07-27 16:00:00 -- 10 Sudoeste 22 Sur 0 -- -- --
2017-07-27 15:00:00 22.6 9 Sur 22 Sudoeste 0 -- -- 68
2017-07-27 14:00:00 22.6 9 Sudoeste 22 Sudoeste 0 -- -- 58
2017-07-27 13:00:00 23.6 4 Oeste 23 Noroeste 0 -- -- 44
2017-07-27 12:00:00 24.5 13 Noroeste 27 Norte 0 -- -- 33
2017-07-27 11:00:00 24.5 13 Noroeste 26 Noroeste 0 -- -- 34
2017-07-27 10:00:00 23.1 10 Oeste 28 Noroeste 0 -- -- 33
2017-07-27 09:00:00 22.9 11 Oeste 25 Oeste 0 -- -- 34
2017-07-27 08:00:00 20.9 13 Sudoeste 17 Oeste 0 -- -- 35
2017-07-27 07:00:00 18.8 10 Sudoeste 14 Sudoeste 0 -- -- 37
2017-07-27 06:00:00 18.6 10 Sur 12 Sur 0 -- -- 39
2017-07-27 05:00:00 19 0 Calma 6 Sur 0 -- -- 38
2017-07-27 04:00:00 19.3 0 Calma 8 Sudeste 0 -- -- 38
2017-07-27 03:00:00 19.3 4 Sudeste 13 Nordeste 0 -- -- 37
2017-07-27 02:00:00 19.6 10 Norte 20 Norte 0 -- -- 37
2017-07-27 01:00:00 19.2 13 Norte 28 Norte 0 -- -- 36
2017-07-27 00:00:00 19.5 22 Norte 30 Norte 0 -- -- 33
2017-07-26 23:00:00 18.8 19 Norte 25 Norte 0 -- -- 33
2017-07-26 22:00:00 17.8 7 Noroeste 15 Noroeste 0 -- -- 44
2017-07-26 21:00:00 17.9 0 Calma 13 Sudeste 0 -- -- 61
2017-07-26 20:00:00 19.2 5 Sur 19 Sudeste 0 -- -- 53
2017-07-26 19:00:00 20.8 10 Este 22 Nordeste 0 -- -- 42
2017-07-26 18:00:00 18.7 14 Norte 28 Norte 0 -- -- 43
2017-07-26 17:00:00 20.3 12 Noroeste 28 Noroeste 0 -- -- 32
2017-07-26 16:00:00 21.2 13 Norte 24 Norte 0 -- -- 47
2017-07-26 15:00:00 20.1 6 Noroeste 23 Norte 0 -- -- 54
2017-07-26 14:00:00 19.5 13 Noroeste 27 Noroeste 0 -- -- 63
2017-07-26 13:00:00 18.7 12 Norte 24 Oeste 0 -- -- 67
2017-07-26 12:00:00 18.2 6 Norte 19 Norte 0 -- -- 70
2017-07-26 11:00:00 18 10 Norte 24 Noroeste 0 -- -- 70
2017-07-26 10:00:00 17.2 11 Noroeste 19 Norte 0 -- -- 78
2017-07-26 09:00:00 17.1 12 Noroeste 31 Noroeste 0 -- -- 76
2017-07-26 08:00:00 15.9 11 Noroeste 16 Noroeste 0 -- -- 89
2017-07-26 07:00:00 15.5 10 Sudoeste 21 Sudoeste 0 -- -- 89
2017-07-26 06:00:00 15.7 15 Sur 41 Sudeste 0 -- -- 89
2017-07-26 05:00:00 15.5 15 Sur 22 Sur 0 -- -- 89
2017-07-26 04:00:00 15.2 15 Sur 23 Sur 0 -- -- 88
2017-07-26 03:00:00 15.2 14 Sur 21 Sur 0 -- -- 88
2017-07-26 02:00:00 15 15 Sur 22 Sur 0 -- -- 86
2017-07-26 01:00:00 14.9 15 Sur 23 Sur 0 -- -- 85
2017-07-26 00:00:00 15.3 16 Sur 24 Sudeste 0 -- -- 82
2017-07-25 23:00:00 15.6 15 Sur 23 Sur 0 -- -- 81
2017-07-25 22:00:00 16 16 Sur 25 Sur 0 -- -- 82
2017-07-25 21:00:00 16.2 14 Sur 22 Sur 0 -- -- 79
2017-07-25 20:00:00 17.4 6 Sur 16 Sur 0 -- -- 62
2017-07-25 19:00:00 18.4 6 Sur 19 Sur 0 -- -- 61
2017-07-25 18:00:00 19.9 8 Sur 24 Sudeste 0 -- -- 57
2017-07-25 17:00:00 18.6 15 Sur 32 Sudeste 0 -- -- 60
2017-07-25 16:00:00 19.3 9 Sudeste 19 Sur 0 -- -- 55
2017-07-25 15:00:00 18.8 10 Sur 21 Sur 0 -- -- 56
2017-07-25 14:00:00 19.4 8 Sudeste 27 Sudeste 0 -- -- 54
2017-07-25 13:00:00 19.5 0 Calma 28 Sudeste 0 -- -- 60
2017-07-25 12:00:00 17.9 11 Sudeste 26 Sudeste 0 -- -- 64
2017-07-25 11:00:00 18.7 4 Sudeste 27 Sudeste 0 -- -- 63
2017-07-25 10:00:00 17.9 18 Sudeste 29 Sudeste 0 -- -- 72
2017-07-25 09:00:00 15.8 20 Sudeste 36 Sudeste 0 -- -- 84
2017-07-25 08:00:00 15.4 19 Sudeste 25 Sudeste 0 -- -- 89
2017-07-25 07:00:00 15.8 16 Sudeste 22 Sudeste 0 -- -- 89
2017-07-25 06:00:00 16.7 9 Sudeste 17 Sudeste 0 -- -- 74
2017-07-25 05:00:00 17 8 Noroeste 27 Noroeste 0 -- -- 65
2017-07-25 04:00:00 16.4 16 Noroeste 29 Noroeste 0 -- -- 77
2017-07-25 03:00:00 17.1 18 Noroeste 48 Norte 0 -- -- 71
2017-07-25 02:00:00 18.1 25 Noroeste 44 Noroeste 0 -- -- 75
2017-07-25 01:00:00 18.2 23 Noroeste 49 Noroeste 0 -- -- 60
2017-07-25 00:00:00 18.8 26 Noroeste 45 Norte 0 -- -- 47
2017-07-24 23:00:00 19.4 30 Norte 53 Noroeste 0 -- -- 42
2017-07-24 22:00:00 19.5 32 Noroeste 58 Noroeste 0 -- -- 42
2017-07-24 21:00:00 20 36 Noroeste 51 Norte 0 -- -- 40
2017-07-24 20:00:00 20.9 27 Noroeste 39 Noroeste 0 -- -- 38
2017-07-24 19:00:00 22.1 24 Noroeste 46 Noroeste 0 -- -- 37
2017-07-24 18:00:00 22.7 28 Noroeste 49 Noroeste 0 -- -- 38
2017-07-24 17:00:00 21.9 33 Noroeste 42 Norte 0 -- -- 40
2017-07-24 16:00:00 21.4 21 Norte 39 Norte 0 -- -- 48
2017-07-24 15:00:00 21.4 22 Norte 32 Norte 0 -- -- 54
2017-07-24 14:00:00 18.9 30 Norte 42 Norte 0 -- -- 82
2017-07-24 13:00:00 19.5 19 Norte 32 Norte 0 -- -- 77
2017-07-24 12:00:00 19.7 16 Noroeste 31 Norte 0 -- -- 70
2017-07-24 11:00:00 21.9 5 Norte 17 Norte 0 -- -- 53
2017-07-24 10:00:00 18.7 10 Norte 37 Norte 0 -- -- 78
2017-07-24 09:00:00 18.6 27 Norte 34 Norte 0 -- -- 64
2017-07-24 08:00:00 17.7 22 Noroeste 36 Norte 0 -- -- 84
2017-07-24 07:00:00 17.6 32 Noroeste 37 Norte 0 -- -- 82
2017-07-24 06:00:00 18.5 28 Noroeste 36 Noroeste 0 -- -- 64
2017-07-24 05:00:00 17.9 17 Noroeste 37 Norte 0 -- -- 79
2017-07-24 04:00:00 17.7 26 Norte 37 Noroeste 0 -- -- 81
2017-07-24 03:00:00 18 24 Noroeste 33 Noroeste 0 -- -- 80
2017-07-24 02:00:00 17.6 26 Norte 36 Norte 0 -- -- 86
2017-07-24 01:00:00 18 27 Norte 32 Norte 0 -- -- 83
2017-07-24 00:00:00 20 11 Noroeste 17 Sudeste 0 -- -- 55
2017-07-23 23:00:00 19.3 12 Sur 24 Sudeste 0 -- -- 80
2017-07-23 22:00:00 18.9 23 Sudeste 36 Sur 0 -- -- 70
2017-07-23 21:00:00 20.2 12 Sur 50 Norte 0 -- -- 56
2017-07-23 20:00:00 18.9 36 Norte 54 Norte 0 -- -- 78
2017-07-23 19:00:00 20.4 27 Noroeste 40 Noroeste 0 -- -- 83
2017-07-23 18:00:00 22.6 6 Sur 17 Sudeste 0 -- -- 75
2017-07-23 17:00:00 22.1 6 Sudoeste 22 Sudoeste 0 -- -- 75
2017-07-23 16:00:00 22.6 7 Sudoeste 19 Nordeste 0 -- -- 65
2017-07-23 15:00:00 22.1 13 Sudeste 32 Sur 0 -- -- 70
2017-07-23 14:00:00 22.6 20 Sudeste 38 Sudeste 0 -- -- 66
2017-07-23 13:00:00 21.8 11 Sudeste 39 Este 0 -- -- 67
2017-07-23 12:00:00 21.1 14 Sur 24 Sur 0 -- -- 78
2017-07-23 11:00:00 20.8 19 Sudeste 44 Sudeste 0 -- -- 78
2017-07-23 10:00:00 22.6 13 Nordeste 18 Nordeste 0 -- -- 32
2017-07-23 09:00:00 22.8 7 Este 15 Este 0 -- -- 30
2017-07-23 08:00:00 21.3 8 Sudeste 21 Sudeste 0 -- -- 31
2017-07-23 07:00:00 20.1 9 Sudeste 22 Sur 0 -- -- 30
2017-07-23 06:00:00 21.5 3 Este 18 Norte 0 -- -- 22
2017-07-23 05:00:00 21.6 8 Norte 17 Norte 0 -- -- 21
2017-07-23 04:00:00 21.7 10 Noroeste 15 Noroeste 0 -- -- 19
2017-07-23 03:00:00 22 7 Sudoeste 18 Sudoeste 0 -- -- 16
2017-07-23 02:00:00 21.3 16 Sudoeste 23 Sudoeste 0 -- -- 30
2017-07-23 01:00:00 21.1 14 Sur 22 Sur 0 -- -- 30
2017-07-23 00:00:00 21.6 18 Sur 33 Sur 0 -- -- 17
2017-07-22 23:00:00 20.5 27 Sur 39 Sur 0 -- -- 34
2017-07-22 22:00:00 18.3 32 Sur 39 Sur 0 -- -- 88
2017-07-22 21:00:00 18.9 24 Sur 30 Sur 0 -- -- 86
2017-07-22 20:00:00 20 15 Sur 21 Sur 0 -- -- 79
2017-07-22 19:00:00 21.4 13 Sur 20 Sur 0 -- -- 72
2017-07-22 18:00:00 22.6 9 Sudoeste 20 Sudoeste 0 -- -- 65
2017-07-22 17:00:00 22.9 9 Sudoeste 22 Sudoeste 0 -- -- 66
2017-07-22 16:00:00 23.4 10 Sur 19 Sur 0 -- -- 66
2017-07-22 15:00:00 23.5 9 Sudoeste 17 Sudoeste 0 -- -- 66
2017-07-22 14:00:00 23.9 8 Sudoeste 20 Sudoeste 0 -- -- 60
2017-07-22 13:00:00 24.8 9 Sur 31 Sur 0 -- -- 51
2017-07-22 12:00:00 23.7 16 Sur 31 Sur 0 -- -- 57
2017-07-22 11:00:00 21 12 Sur 21 Sudeste 0 -- -- 72
2017-07-22 10:00:00 21.4 14 Sur 23 Sudeste 0 -- -- 65
2017-07-22 09:00:00 21.9 6 Sudeste 18 Sudeste 0 -- -- 49
2017-07-22 08:00:00 19.3 5 Sur 24 Norte 0 -- -- 68
2017-07-22 07:00:00 18.3 12 Norte 19 Norte 0 -- -- 75
2017-07-22 06:00:00 17.6 15 Norte 20 Noroeste 0 -- -- 87
2017-07-22 05:00:00 17.8 14 Noroeste 17 Norte 0 -- -- 87
2017-07-22 04:00:00 17.9 8 Oeste 16 Sudoeste 0 -- -- 89
2017-07-22 03:00:00 17.9 7 Sudoeste 18 Sudoeste 0 -- -- 89
2017-07-22 02:00:00 18.4 10 Sur 26 Sur 0 -- -- 89
2017-07-22 01:00:00 18.5 20 Sur 31 Sur 0 -- -- 89
2017-07-22 00:00:00 18.7 25 Sur 38 Sur 0 -- -- 89